Time;durP1;ratioP1;P1;durP2;ratioP2;P2;SDS_P1;SDS_P2;PMS_P1;PMS_P2;Temp;Humidity;BMP_temperature;BMP_pressure;BME280_temperature;BME280_humidity;BME280_pressure;Samples;Min_cycle;Max_cycle;Signal;HPM_P1;HPM_P2
2023/07/21 00:01:23;;;;;;;;;;;;;;;12.71;68.49;100743.77;108678;1262;72737;-85
2023/07/21 00:03:50;;;;;;;;;;;;;;;12.68;68.57;100739.49;108606;1262;124276;-87
2023/07/21 00:06:19;;;;;;;;;;;;;;;12.66;68.59;100739.64;108617;1261;59589;-87
2023/07/21 00:08:46;;;;;;;;;;;;;;;12.63;68.72;100735.88;108500;1262;125244;-87
2023/07/21 00:11:13;;;;;;;;;;;;;;;12.61;68.83;100735.86;108558;1262;66912;-87
2023/07/21 00:13:40;;;;;;;;;;;;;;;12.59;69.00;100736.18;108626;1265;72550;-87
2023/07/21 00:16:06;;;;;;;;;;;;;;;12.58;69.12;100736.70;108474;1261;124973;-87
2023/07/21 00:18:34;;;;;;;;;;;;;;;12.58;69.39;100733.34;108624;1262;60142;-87
2023/07/21 00:21:05;;;;;;;;;;;;;;;12.58;69.32;100733.17;108571;1261;125517;-87
2023/07/21 00:23:32;;;;;;;;;;;;;;;12.58;69.54;100732.65;108612;1261;67021;-87
2023/07/21 00:26:00;;;;;;;;;;;;;;;12.59;69.52;100737.77;108613;1260;71753;-87
2023/07/21 00:28:27;;;;;;;;;;;;;;;12.59;69.65;100735.31;108518;1263;125152;-87
2023/07/21 00:30:54;;;;;;;;;;;;;;;12.60;69.62;100733.38;108626;1262;59246;-87
2023/07/21 00:33:22;;;;;;;;;;;;;;;12.60;69.66;100732.32;108478;1262;125467;-87
2023/07/21 00:35:49;;;;;;;;;;;;;;;12.61;69.74;100736.20;108648;1262;67290;-87
2023/07/21 00:38:16;;;;;;;;;;;;;;;12.62;69.79;100737.46;108626;1261;72719;-87
2023/07/21 00:40:42;;;;;;;;;;;;;;;12.62;69.80;100738.16;108517;1262;124944;-87
2023/07/21 00:43:16;;;;;;;;;;;;;;;12.64;69.91;100739.24;108649;1261;59139;-87
2023/07/21 00:45:43;;;;;;;;;;;;;;;12.63;69.99;100733.08;108544;1262;125087;-87
2023/07/21 00:48:10;;;;;;;;;;;;;;;12.64;70.02;100735.04;108641;1264;67138;-87
2023/07/21 00:50:42;;;;;;;;;;;;;;;12.65;70.06;100731.35;108611;1264;72493;-87
2023/07/21 00:53:10;;;;;;;;;;;;;;;12.67;70.09;100732.95;108578;1264;59381;-87
2023/07/21 00:55:38;;;;;;;;;;;;;;;12.68;70.20;100728.57;108499;1262;59133;-87
2023/07/21 00:58:07;;;;;;;;;;;;;;;12.69;70.16;100729.81;108474;1263;125744;-87
2023/07/21 01:00:34;;;;;;;;;;;;;;;12.69;70.23;100734.23;108423;1262;66887;-87
2023/07/21 01:03:01;;;;;;;;;;;;;;;12.70;70.31;100735.46;108457;1262;125235;-87
2023/07/21 01:05:32;;;;;;;;;;;;;;;12.71;70.32;100732.67;108557;1260;59566;-87
2023/07/21 01:07:59;;;;;;;;;;;;;;;12.72;70.40;100738.84;108596;1260;60199;-87
2023/07/21 01:10:27;;;;;;;;;;;;;;;12.72;70.44;100736.21;108432;1261;124907;-87
2023/07/21 01:12:54;;;;;;;;;;;;;;;12.72;70.46;100732.69;108546;1262;65447;-87
2023/07/21 01:15:20;;;;;;;;;;;;;;;12.74;70.47;100730.42;108470;1262;125583;-86
2023/07/21 01:17:47;;;;;;;;;;;;;;;12.73;70.55;100727.78;108604;1262;59029;-86
2023/07/21 01:20:15;;;;;;;;;;;;;;;12.73;70.56;100728.65;108552;1262;60142;-86
2023/07/21 01:22:47;;;;;;;;;;;;;;;12.73;70.65;100730.07;108509;1260;124893;-87
2023/07/21 01:25:14;;;;;;;;;;;;;;;12.72;70.67;100728.83;108584;1261;67119;-86
2023/07/21 01:27:41;;;;;;;;;;;;;;;12.73;70.71;100726.19;108446;1261;127306;-86
2023/07/21 01:30:10;;;;;;;;;;;;;;;12.73;70.86;100729.53;108556;1261;59441;-88
2023/07/21 01:32:37;;;;;;;;;;;;;;;12.75;70.95;100724.98;108727;1262;60174;-87
2023/07/21 01:35:07;;;;;;;;;;;;;;;12.76;70.93;100722.89;108650;1262;124744;-88
2023/07/21 01:37:52;;;;;;;;;;;;;;;12.76;71.00;100725.55;108639;1260;66129;-88
2023/07/21 01:40:19;;;;;;;;;;;;;;;12.77;70.93;100727.13;108522;1261;125369;-88
2023/07/21 01:42:46;;;;;;;;;;;;;;;12.77;70.98;100730.30;108586;1260;59621;-88
2023/07/21 01:45:14;;;;;;;;;;;;;;;12.76;70.92;100725.88;108509;1266;126141;-88
2023/07/21 01:47:42;;;;;;;;;;;;;;;12.75;70.97;100732.39;108615;1262;74686;-88
2023/07/21 01:50:13;;;;;;;;;;;;;;;12.73;70.96;100734.98;108763;1260;65061;-88
2023/07/21 01:52:40;;;;;;;;;;;;;;;12.71;70.98;100733.55;108528;1263;124940;-88
2023/07/21 01:55:12;;;;;;;;;;;;;;;12.70;71.11;100734.41;108633;1261;59579;-88
2023/07/21 01:57:41;;;;;;;;;;;;;;;12.69;71.07;100733.34;108662;1262;124961;-88
2023/07/21 02:00:11;;;;;;;;;;;;;;;12.67;71.09;100734.38;108628;1261;74877;-87
2023/07/21 02:02:40;;;;;;;;;;;;;;;12.65;71.17;100732.23;108620;1263;65956;-88
2023/07/21 02:05:16;;;;;;;;;;;;;;;12.64;71.32;100730.81;108501;1261;124955;-88
2023/07/21 02:07:44;;;;;;;;;;;;;;;12.64;71.34;100733.10;108613;1266;59233;-87
2023/07/21 02:10:11;;;;;;;;;;;;;;;12.64;71.36;100728.52;108365;1262;125015;-87
2023/07/21 02:12:38;;;;;;;;;;;;;;;12.64;71.41;100730.27;108697;1261;73369;-87
2023/07/21 02:15:06;;;;;;;;;;;;;;;12.64;71.56;100728.17;108439;1262;125442;-87
2023/07/21 02:17:36;;;;;;;;;;;;;;;12.66;71.46;100733.48;108597;1261;71298;-88
2023/07/21 02:20:08;;;;;;;;;;;;;;;12.66;71.50;100733.81;108757;1262;59052;-88
2023/07/21 02:22:36;;;;;;;;;;;;;;;12.64;71.58;100735.38;108575;1265;125197;-88
2023/07/21 02:25:04;;;;;;;;;;;;;;;12.64;71.59;100736.08;108620;1261;73146;-88
2023/07/21 02:27:31;;;;;;;;;;;;;;;12.63;71.58;100736.79;108572;1266;125211;-88
2023/07/21 02:29:59;;;;;;;;;;;;;;;12.63;71.65;100735.88;108591;1262;71442;-88
2023/07/21 02:32:28;;;;;;;;;;;;;;;12.62;71.68;100735.17;108573;1265;58997;-88
2023/07/21 02:34:55;;;;;;;;;;;;;;;12.61;71.75;100731.80;108483;1260;125004;-88
2023/07/21 02:37:22;;;;;;;;;;;;;;;12.59;71.77;100734.23;108619;1260;73785;-88
2023/07/21 02:39:51;;;;;;;;;;;;;;;12.59;72.00;100733.53;108652;1264;125003;-88
2023/07/21 02:42:19;;;;;;;;;;;;;;;12.58;71.84;100735.64;108722;1261;71122;-88
2023/07/21 02:44:46;;;;;;;;;;;;;;;12.58;71.96;100737.39;108504;1260;125040;-87
2023/07/21 02:47:16;;;;;;;;;;;;;;;12.57;71.95;100740.19;108711;1261;61141;-88
2023/07/21 02:49:43;;;;;;;;;;;;;;;12.59;72.10;100746.39;108687;1263;73616;-88
2023/07/21 02:52:11;;;;;;;;;;;;;;;12.60;72.10;100749.23;108600;1265;125289;-88
2023/07/21 02:54:37;;;;;;;;;;;;;;;12.63;72.20;100747.16;108798;1260;72792;-88
2023/07/21 02:57:05;;;;;;;;;;;;;;;12.66;72.21;100749.66;108633;1262;125233;-88
2023/07/21 02:59:32;;;;;;;;;;;;;;;12.70;72.24;100754.31;108564;1262;59411;-88
2023/07/21 03:01:59;;;;;;;;;;;;;;;12.74;72.22;100756.30;108767;1260;74770;-88
2023/07/21 03:04:26;;;;;;;;;;;;;;;12.78;72.28;100754.08;108551;1260;125569;-88
2023/07/21 03:06:52;;;;;;;;;;;;;;;12.83;72.30;100751.35;108770;1261;71487;-88
2023/07/21 03:09:19;;;;;;;;;;;;;;;12.89;72.22;100751.98;108536;1263;125293;-87
2023/07/21 03:11:46;;;;;;;;;;;;;;;12.97;72.34;100751.74;108761;1264;59171;-88
2023/07/21 03:14:14;;;;;;;;;;;;;;;13.06;72.29;100754.86;108591;1260;75645;-87
2023/07/21 03:16:41;;;;;;;;;;;;;;;13.14;72.19;100754.63;108490;1266;124953;-86
2023/07/21 03:19:08;;;;;;;;;;;;;;;13.23;72.17;100757.92;108756;1262;73117;-86
2023/07/21 03:21:35;;;;;;;;;;;;;;;13.32;72.07;100760.73;108656;1260;124999;-88
2023/07/21 03:24:02;;;;;;;;;;;;;;;13.41;72.04;100756.98;108679;1261;60148;-89
2023/07/21 03:26:29;;;;;;;;;;;;;;;13.50;72.01;100757.81;108608;1266;75092;-88
2023/07/21 03:28:56;;;;;;;;;;;;;;;13.61;71.92;100759.35;108533;1261;124336;-88
2023/07/21 03:31:23;;;;;;;;;;;;;;;13.70;71.77;100756.13;108760;1261;71143;-88
2023/07/21 03:33:50;;;;;;;;;;;;;;;13.82;71.64;100757.51;108618;1265;124713;-88
2023/07/21 03:36:20;;;;;;;;;;;;;;;13.97;71.67;100758.55;108734;1265;59409;-88
2023/07/21 03:38:48;;;;;;;;;;;;;;;14.16;71.58;100757.52;108729;1261;124417;-88
2023/07/21 03:41:16;;;;;;;;;;;;;;;14.50;71.82;100753.98;108739;1260;65864;-88
2023/07/21 03:43:43;;;;;;;;;;;;;;;15.42;72.95;100751.98;108757;1265;72725;-87
2023/07/21 03:46:10;;;;;;;;;;;;;;;16.59;72.24;100749.33;108608;1261;124280;-88
2023/07/21 03:48:37;;;;;;;;;;;;;;;17.65;71.48;100747.39;108658;1261;59414;-88
2023/07/21 03:51:05;;;;;;;;;;;;;;;18.93;70.72;100744.06;108578;1260;124580;-88
2023/07/21 03:53:32;;;;;;;;;;;;;;;20.36;69.10;100744.66;108572;1261;66840;-87
2023/07/21 03:55:59;;;;;;;;;;;;;;;21.74;67.33;100746.46;108533;1261;72517;-88
2023/07/21 03:58:26;;;;;;;;;;;;;;;22.95;65.01;100741.88;108673;1264;124620;-88
2023/07/21 04:00:55;;;;;;;;;;;;;;;23.95;62.91;100745.52;108601;1261;60128;-89
2023/07/21 04:03:24;;;;;;;;;;;;;;;24.49;60.06;100744.73;108596;1265;125265;-88
2023/07/21 04:05:52;;;;;;;;;;;;;;;25.08;59.30;100747.63;108700;1260;66180;-87
2023/07/21 04:08:19;;;;;;;;;;;;;;;26.20;58.03;100745.42;108614;1260;71151;-88
2023/07/21 04:10:46;;;;;;;;;;;;;;;27.36;56.53;100741.80;108607;1261;124697;-88
2023/07/21 04:13:13;;;;;;;;;;;;;;;28.43;54.60;100743.30;108635;1260;60104;-88
2023/07/21 04:15:40;;;;;;;;;;;;;;;29.50;53.07;100745.23;108727;1264;124397;-89
2023/07/21 04:18:07;;;;;;;;;;;;;;;30.44;51.22;100742.90;108742;1261;59097;-88
2023/07/21 04:20:34;;;;;;;;;;;;;;;31.25;49.37;100744.30;108733;1260;64193;-88
2023/07/21 04:23:00;;;;;;;;;;;;;;;31.90;47.65;100746.92;108524;1264;124751;-88
2023/07/21 04:25:27;;;;;;;;;;;;;;;32.42;46.12;100747.21;108654;1261;59115;-89
2023/07/21 04:27:55;;;;;;;;;;;;;;;32.75;44.60;100749.35;108585;1261;124396;-89
2023/07/21 04:30:22;;;;;;;;;;;;;;;33.11;43.40;100752.02;108691;1261;59098;-89
2023/07/21 04:32:49;;;;;;;;;;;;;;;33.65;42.81;100748.18;108563;1261;124746;-89
2023/07/21 04:35:16;;;;;;;;;;;;;;;34.31;41.51;100747.21;108802;1260;59153;-90
2023/07/21 04:37:43;;;;;;;;;;;;;;;34.89;40.42;100745.20;108841;1260;59103;-90
2023/07/21 04:40:11;;;;;;;;;;;;;;;35.42;39.53;100745.66;108739;1260;124283;-84
2023/07/21 04:42:38;;;;;;;;;;;;;;;35.95;38.67;100744.17;108661;1261;59144;-84
2023/07/21 04:45:11;;;;;;;;;;;;;;;36.51;37.69;100743.42;108446;1260;124897;-83
2023/07/21 04:47:39;;;;;;;;;;;;;;;36.94;36.80;100744.90;108677;1261;59112;-88
2023/07/21 04:50:06;;;;;;;;;;;;;;;37.17;35.42;100741.77;108613;1260;59058;-90
2023/07/21 04:52:33;;;;;;;;;;;;;;;37.33;34.94;100742.60;108694;1260;124261;-87
2023/07/21 04:55:00;;;;;;;;;;;;;;;37.75;34.31;100739.24;108653;1260;59127;-86
2023/07/21 04:57:27;;;;;;;;;;;;;;;38.21;33.40;100742.27;108669;1260;124620;-88
2023/07/21 04:59:54;;;;;;;;;;;;;;;38.28;32.15;100742.67;108681;1260;59543;-84
2023/07/21 05:02:23;;;;;;;;;;;;;;;38.11;31.51;100745.55;108699;1260;58982;-86
2023/07/21 05:04:49;;;;;;;;;;;;;;;37.90;31.06;100747.44;108618;1260;124443;-88
2023/07/21 05:07:16;;;;;;;;;;;;;;;37.86;30.92;100743.95;108693;1261;59333;-86
2023/07/21 05:09:44;;;;;;;;;;;;;;;38.18;30.55;100742.85;108568;1264;124247;-86
2023/07/21 05:12:11;;;;;;;;;;;;;;;38.42;30.01;100747.27;108647;1261;59115;-87
2023/07/21 05:14:41;;;;;;;;;;;;;;;38.70;29.71;100749.13;108712;1260;59119;-87
2023/07/21 05:17:08;;;;;;;;;;;;;;;38.92;29.44;100752.17;108752;1261;66486;-89
2023/07/21 05:19:35;;;;;;;;;;;;;;;38.46;28.59;100752.00;108689;1260;59048;-89
2023/07/21 05:22:02;;;;;;;;;;;;;;;37.40;28.59;100748.91;108490;1261;124484;-85
2023/07/21 05:24:29;;;;;;;;;;;;;;;37.06;29.12;100751.67;108624;1260;59178;-88
2023/07/21 05:26:58;;;;;;;;;;;;;;;37.17;29.48;100751.12;108565;1260;124406;-88
2023/07/21 05:29:25;;;;;;;;;;;;;;;37.94;29.09;100750.14;108686;1260;66277;-88
2023/07/21 05:31:52;;;;;;;;;;;;;;;38.52;28.69;100749.66;108711;1261;59074;-89
2023/07/21 05:34:21;;;;;;;;;;;;;;;39.22;28.45;100749.83;108517;1260;124296;-89
2023/07/21 05:36:48;;;;;;;;;;;;;;;39.76;27.68;100751.02;108639;1261;59434;-87
2023/07/21 05:39:15;;;;;;;;;;;;;;;39.97;27.01;100752.65;108563;1260;124422;-86
2023/07/21 05:41:42;;;;;;;;;;;;;;;40.05;26.59;100753.73;108490;1260;64745;-86
2023/07/21 05:44:10;;;;;;;;;;;;;;;39.73;26.12;100757.95;108616;1261;59106;-88
2023/07/21 05:46:39;;;;;;;;;;;;;;;38.10;25.65;100756.70;108563;1260;124404;-89
2023/07/21 05:49:06;;;;;;;;;;;;;;;35.67;26.26;100753.45;108740;1260;59310;-90
2023/07/21 05:51:33;;;;;;;;;;;;;;;33.43;27.51;100755.49;108565;1260;124471;-88
2023/07/21 05:54:01;;;;;;;;;;;;;;;31.68;28.71;100754.09;108665;1260;64846;-86
2023/07/21 05:56:28;;;;;;;;;;;;;;;30.21;29.71;100755.42;108731;1260;59968;-88
2023/07/21 05:58:55;;;;;;;;;;;;;;;28.90;30.84;100754.11;108500;1260;124958;-88
2023/07/21 06:01:24;;;;;;;;;;;;;;;27.66;32.10;100753.97;108721;1260;59319;-88
2023/07/21 06:03:51;;;;;;;;;;;;;;;26.75;33.23;100752.91;108538;1260;124294;-89
2023/07/21 06:06:18;;;;;;;;;;;;;;;26.08;34.35;100753.48;108649;1260;74668;-88
2023/07/21 06:08:44;;;;;;;;;;;;;;;25.49;34.94;100751.89;108654;1260;124550;-88
2023/07/21 06:11:12;;;;;;;;;;;;;;;25.00;35.87;100750.93;108711;1260;72740;-88
2023/07/21 06:13:38;;;;;;;;;;;;;;;24.58;36.35;100752.35;108630;1260;59275;-88
2023/07/21 06:16:05;;;;;;;;;;;;;;;24.16;36.77;100750.46;108634;1260;124475;-88
2023/07/21 06:18:32;;;;;;;;;;;;;;;23.77;37.11;100748.41;108727;1260;74495;-88
2023/07/21 06:20:59;;;;;;;;;;;;;;;23.47;37.72;100741.18;108585;1260;124344;-88
2023/07/21 06:23:27;;;;;;;;;;;;;;;23.32;38.21;100742.88;108618;1260;72540;-88
2023/07/21 06:25:54;;;;;;;;;;;;;;;23.31;38.68;100742.01;108681;1260;59364;-88
2023/07/21 06:28:21;;;;;;;;;;;;;;;23.23;38.87;100742.76;108563;1261;124487;-88
2023/07/21 06:30:48;;;;;;;;;;;;;;;23.16;39.26;100745.13;108739;1260;72651;-87
2023/07/21 06:33:15;;;;;;;;;;;;;;;23.11;39.27;100742.73;108613;1261;124978;-87
2023/07/21 06:35:42;;;;;;;;;;;;;;;23.01;39.49;100744.05;108621;1261;72838;-87
2023/07/21 06:38:09;;;;;;;;;;;;;;;22.97;39.49;100744.34;108643;1260;59122;-88
2023/07/21 06:40:36;;;;;;;;;;;;;;;22.95;39.68;100744.02;108683;1260;124331;-88
2023/07/21 06:43:03;;;;;;;;;;;;;;;23.11;39.85;100745.79;108776;1260;74650;-88
2023/07/21 06:45:30;;;;;;;;;;;;;;;23.40;40.09;100746.59;108566;1261;124364;-88
2023/07/21 06:48:00;;;;;;;;;;;;;;;23.77;39.87;100749.48;108639;1260;73517;-87
2023/07/21 06:50:27;;;;;;;;;;;;;;;24.10;39.62;100751.18;108659;1260;59084;-87
2023/07/21 06:52:53;;;;;;;;;;;;;;;24.41;39.41;100752.55;108615;1260;124306;-87
2023/07/21 06:55:22;;;;;;;;;;;;;;;24.67;39.13;100754.02;108765;1260;73315;-88
2023/07/21 06:57:49;;;;;;;;;;;;;;;24.96;39.16;100749.84;108539;1260;124334;-88
2023/07/21 07:00:16;;;;;;;;;;;;;;;25.27;39.02;100751.64;108735;1261;72614;-89
2023/07/21 07:02:48;;;;;;;;;;;;;;;25.49;38.36;100750.83;108825;1260;59123;-88
2023/07/21 07:05:16;;;;;;;;;;;;;;;25.56;37.81;100753.46;108789;1260;59020;-88
2023/07/21 07:07:43;;;;;;;;;;;;;;;25.61;37.52;100749.12;108759;1260;74731;-89
2023/07/21 07:10:10;;;;;;;;;;;;;;;25.69;37.30;100749.02;108600;1260;124627;-89
2023/07/21 07:12:38;;;;;;;;;;;;;;;25.78;37.05;100750.09;108578;1265;72465;-89
2023/07/21 07:15:05;;;;;;;;;;;;;;;25.78;36.77;100753.73;108568;1261;124755;-89
2023/07/21 07:17:32;;;;;;;;;;;;;;;25.70;36.58;100751.69;108582;1260;59194;-89
2023/07/21 07:19:59;;;;;;;;;;;;;;;25.59;36.69;100757.10;108729;1260;74405;-88
2023/07/21 07:22:26;;;;;;;;;;;;;;;25.47;36.66;100759.16;108574;1260;124444;-89
2023/07/21 07:24:53;;;;;;;;;;;;;;;25.41;36.90;100761.55;108638;1261;72552;-89
2023/07/21 07:27:20;;;;;;;;;;;;;;;25.41;36.90;100759.73;108568;1260;124499;-89
2023/07/21 07:29:48;;;;;;;;;;;;;;;25.41;37.11;100759.39;108787;1260;60146;-88
2023/07/21 07:32:15;;;;;;;;;;;;;;;25.28;37.20;100762.22;108729;1260;73866;-89
2023/07/21 07:34:42;;;;;;;;;;;;;;;25.31;37.54;100764.27;108682;1260;124258;-89
2023/07/21 07:37:09;;;;;;;;;;;;;;;25.34;37.34;100765.95;108661;1261;73213;-89
2023/07/21 07:39:36;;;;;;;;;;;;;;;25.29;37.25;100771.15;108662;1260;124430;-88
2023/07/21 07:42:03;;;;;;;;;;;;;;;25.08;37.36;100770.61;108772;1260;60084;-88
2023/07/21 07:44:30;;;;;;;;;;;;;;;24.96;37.61;100768.88;108772;1260;74922;-89
2023/07/21 07:46:57;;;;;;;;;;;;;;;24.99;37.90;100769.27;108525;1261;125012;-89
2023/07/21 07:49:24;;;;;;;;;;;;;;;24.99;37.70;100775.40;108680;1260;71384;-89
2023/07/21 07:51:51;;;;;;;;;;;;;;;24.90;37.83;100781.64;108583;1260;124676;-88
2023/07/21 07:54:21;;;;;;;;;;;;;;;24.73;37.68;100785.06;108680;1260;60166;-88
2023/07/21 07:56:48;;;;;;;;;;;;;;;24.40;37.53;100778.77;108670;1260;124550;-88
2023/07/21 07:59:15;;;;;;;;;;;;;;;24.02;37.76;100779.58;108621;1260;67605;-88
2023/07/21 08:01:42;;;;;;;;;;;;;;;23.73;38.14;100784.73;108732;1260;72606;-88
2023/07/21 08:04:08;;;;;;;;;;;;;;;23.39;38.67;100779.92;108651;1260;124850;-88
2023/07/21 08:06:35;;;;;;;;;;;;;;;23.29;39.22;100780.38;108649;1261;60091;-88
2023/07/21 08:09:03;;;;;;;;;;;;;;;23.12;39.38;100775.27;108567;1261;125032;-88
2023/07/21 08:11:30;;;;;;;;;;;;;;;22.77;39.56;100778.66;108714;1260;65880;-88
2023/07/21 08:13:57;;;;;;;;;;;;;;;22.46;40.14;100773.33;108644;1260;72737;-90
2023/07/21 08:16:24;;;;;;;;;;;;;;;22.20;40.62;100778.20;108609;1260;124496;-89
2023/07/21 08:18:51;;;;;;;;;;;;;;;22.10;41.12;100783.59;108638;1260;60119;-89
2023/07/21 08:21:19;;;;;;;;;;;;;;;22.20;41.27;100785.52;108672;1260;125033;-89
2023/07/21 08:23:46;;;;;;;;;;;;;;;22.41;41.43;100781.68;108762;1263;65495;-90
2023/07/21 08:26:13;;;;;;;;;;;;;;;22.69;41.53;100779.40;108783;1260;72195;-89
2023/07/21 08:28:40;;;;;;;;;;;;;;;22.94;41.11;100777.88;108599;1260;124707;-89
2023/07/21 08:31:09;;;;;;;;;;;;;;;23.10;40.57;100780.52;108628;1261;60222;-89
2023/07/21 08:33:36;;;;;;;;;;;;;;;23.18;40.47;100778.72;108697;1260;124412;-89
2023/07/21 08:36:03;;;;;;;;;;;;;;;23.27;40.19;100780.06;108689;1260;65509;-89
2023/07/21 08:38:41;;;;;;;;;;;;;;;23.36;39.77;100783.77;108676;1266;73598;-90
2023/07/21 08:41:10;;;;;;;;;;;;;;;23.41;39.75;100776.83;108553;1264;124247;-90
2023/07/21 08:43:37;;;;;;;;;;;;;;;23.58;39.96;100781.01;108631;1261;60091;-90
2023/07/21 08:46:07;;;;;;;;;;;;;;;23.70;39.77;100777.08;108516;1260;124579;-89
2023/07/21 08:48:34;;;;;;;;;;;;;;;23.74;39.47;100778.22;108769;1261;66318;-90
2023/07/21 08:51:01;;;;;;;;;;;;;;;23.82;39.55;100781.59;108611;1260;124806;-89
2023/07/21 08:53:28;;;;;;;;;;;;;;;23.89;39.39;100778.36;108687;1260;60003;-90
2023/07/21 08:55:56;;;;;;;;;;;;;;;23.90;39.49;100777.43;108798;1261;60092;-90
2023/07/21 08:58:24;;;;;;;;;;;;;;;24.06;39.45;100778.20;108499;1260;124624;-89
2023/07/21 09:00:52;;;;;;;;;;;;;;;24.10;38.94;100778.61;108672;1263;66757;-89
2023/07/21 09:03:23;;;;;;;;;;;;;;;23.95;38.86;100778.19;108602;1260;125094;-89
2023/07/21 09:05:50;;;;;;;;;;;;;;;23.85;38.91;100778.64;108811;1262;59832;-89
2023/07/21 09:08:24;;;;;;;;;;;;;;;23.84;38.71;100776.52;108724;1260;61610;-89
2023/07/21 09:10:51;;;;;;;;;;;;;;;23.92;38.89;100777.16;108591;1260;124477;-89
2023/07/21 09:13:18;;;;;;;;;;;;;;;24.10;38.96;100775.38;108790;1260;65892;-90
2023/07/21 09:15:55;;;;;;;;;;;;;;;24.24;38.52;100774.58;108640;1261;124797;-89
2023/07/21 09:18:29;;;;;;;;;;;;;;;24.30;38.20;100775.30;108514;1260;59853;-89
2023/07/21 09:20:56;;;;;;;;;;;;;;;24.27;38.52;100778.43;108475;1264;124593;-89
2023/07/21 09:23:23;;;;;;;;;;;;;;;24.22;38.25;100773.38;108796;1260;76198;-89
2023/07/21 09:25:51;;;;;;;;;;;;;;;24.08;38.13;100776.33;108641;1260;67401;-90
2023/07/21 09:28:19;;;;;;;;;;;;;;;24.00;38.49;100772.66;108564;1261;124687;-90
2023/07/21 09:30:52;;;;;;;;;;;;;;;23.96;38.39;100778.68;108626;1260;59883;-89
2023/07/21 09:33:23;;;;;;;;;;;;;;;23.92;38.28;100775.93;108636;1266;124786;-89
2023/07/21 09:35:51;;;;;;;;;;;;;;;23.83;38.26;100776.19;108638;1261;74196;-89
2023/07/21 09:38:20;;;;;;;;;;;;;;;23.69;38.36;100772.81;108659;1260;65853;-89
2023/07/21 09:40:47;;;;;;;;;;;;;;;23.68;38.54;100768.20;108530;1261;124478;-89
2023/07/21 09:43:14;;;;;;;;;;;;;;;23.78;38.72;100768.62;108655;1260;59850;-89
2023/07/21 09:45:41;;;;;;;;;;;;;;;23.89;38.73;100768.85;108578;1260;124702;-89
2023/07/21 09:48:08;;;;;;;;;;;;;;;24.12;38.87;100768.16;108641;1261;74256;-89
2023/07/21 09:50:35;;;;;;;;;;;;;;;24.33;38.51;100766.23;108785;1260;66562;-89
2023/07/21 09:53:03;;;;;;;;;;;;;;;24.52;38.40;100768.69;108608;1260;124571;-89
2023/07/21 09:55:31;;;;;;;;;;;;;;;24.67;38.02;100769.47;108856;1260;59795;-89
2023/07/21 09:57:58;;;;;;;;;;;;;;;24.79;37.68;100768.17;108684;1260;124402;-89
2023/07/21 10:00:28;;;;;;;;;;;;;;;24.88;37.83;100768.58;108667;1260;75321;-89
2023/07/21 10:02:55;;;;;;;;;;;;;;;24.96;37.76;100767.96;108552;1260;125136;-89
2023/07/21 10:05:23;;;;;;;;;;;;;;;25.06;37.41;100766.71;108675;1266;70308;-89
2023/07/21 10:07:50;;;;;;;;;;;;;;;25.19;37.35;100764.66;108631;1260;59926;-89
2023/07/21 10:10:17;;;;;;;;;;;;;;;25.30;37.17;100758.52;108610;1260;125303;-89
2023/07/21 10:12:46;;;;;;;;;;;;;;;25.49;36.90;100761.61;108816;1260;74331;-89
2023/07/21 10:15:17;;;;;;;;;;;;;;;25.75;36.66;100754.89;108655;1260;123666;-89
2023/07/21 10:17:57;;;;;;;;;;;;;;;25.90;36.16;100755.59;108783;1260;72826;-90
2023/07/21 10:20:41;;;;;;;;;;;;;;;25.79;36.10;100755.83;108645;1260;60366;-88
2023/07/21 10:23:08;;;;;;;;;;;;;;;25.55;36.10;100751.15;108615;1260;124881;-88
2023/07/21 10:25:54;;;;;;;;;;;;;;;25.35;36.25;100764.64;108812;1260;73936;-89
2023/07/21 10:28:44;;;;;;;;;;;;;;;25.16;36.24;100768.15;108681;1260;124400;-89
2023/07/21 10:34:09;;;;;;;;;;;;;;;24.57;36.42;100764.24;108708;1260;124399;-90
2023/07/21 10:36:40;;;;;;;;;;;;;;;24.38;36.81;100754.05;108837;1260;59951;-90
2023/07/21 10:39:10;;;;;;;;;;;;;;;24.33;37.03;100755.66;108801;1260;76093;-90
2023/07/21 10:41:41;;;;;;;;;;;;;;;24.37;36.90;100755.17;108655;1260;66099;-89
2023/07/21 10:44:11;;;;;;;;;;;;;;;24.53;36.68;100756.83;108647;1260;72498;-90
2023/07/21 10:46:38;;;;;;;;;;;;;;;24.69;36.42;100752.91;108702;1260;124600;-90
2023/07/21 10:49:06;;;;;;;;;;;;;;;24.86;36.35;100753.59;108819;1260;59894;-90
2023/07/21 10:51:33;;;;;;;;;;;;;;;24.97;36.23;100750.33;108507;1260;266744;-90
2023/07/21 10:54:00;;;;;;;;;;;;;;;25.05;36.12;100747.20;108744;1261;65595;-89
2023/07/21 10:56:27;;;;;;;;;;;;;;;25.08;36.05;100746.52;108798;1261;71849;-89
2023/07/21 10:58:55;;;;;;;;;;;;;;;25.17;35.91;100745.67;108523;1260;124585;-89
2023/07/21 11:01:22;;;;;;;;;;;;;;;25.27;36.03;100745.70;108702;1261;60056;-88
2023/07/21 11:03:49;;;;;;;;;;;;;;;25.35;35.72;100744.55;108595;1260;124539;-88
2023/07/21 11:06:16;;;;;;;;;;;;;;;25.46;35.63;100749.16;108813;1260;65849;-88
2023/07/21 11:08:43;;;;;;;;;;;;;;;25.60;35.64;100749.00;108843;1259;71292;-88
2023/07/21 11:11:10;;;;;;;;;;;;;;;25.76;35.00;100755.55;108630;1261;124799;-87
2023/07/21 11:13:38;;;;;;;;;;;;;;;25.60;34.96;100770.39;108847;1261;59715;-88
2023/07/21 11:16:05;;;;;;;;;;;;;;;25.09;35.75;100770.55;108606;1261;124960;-88
2023/07/21 11:18:32;;;;;;;;;;;;;;;24.62;36.60;100770.73;108700;1265;65821;-88
2023/07/21 11:21:00;;;;;;;;;;;;;;;24.14;36.94;100773.64;108573;1261;125019;-86
2023/07/21 11:23:27;;;;;;;;;;;;;;;23.58;37.18;100774.58;108620;1264;59764;-88
2023/07/21 11:26:04;;;;;;;;;;;;;;;23.23;37.63;100777.51;108739;1261;59794;-85
2023/07/21 11:28:32;;;;;;;;;;;;;;;22.95;37.50;100771.21;108650;1260;124359;-85
2023/07/21 11:31:02;;;;;;;;;;;;;;;22.78;37.84;100776.66;108387;1260;66155;-85
2023/07/21 11:33:42;;;;;;;;;;;;;;;22.65;38.19;100773.58;108478;1260;124600;-86
2023/07/21 11:36:18;;;;;;;;;;;;;;;22.59;38.52;100771.77;108743;1260;59906;-86
2023/07/21 11:38:58;;;;;;;;;;;;;;;22.55;38.73;100767.22;108638;1259;60101;-85
2023/07/21 11:41:40;;;;;;;;;;;;;;;22.64;38.96;100764.84;108599;1260;74573;-85
2023/07/21 11:44:08;;;;;;;;;;;;;;;22.69;39.06;100774.20;108749;1260;67270;-86
2023/07/21 11:46:37;;;;;;;;;;;;;;;22.69;39.08;100769.71;108510;1260;124416;-86
2023/07/21 11:49:10;;;;;;;;;;;;;;;22.80;39.14;100771.43;108762;1261;60046;-86
2023/07/21 11:51:45;;;;;;;;;;;;;;;22.83;38.98;100764.91;108528;1260;125198;-85
2023/07/21 11:54:21;;;;;;;;;;;;;;;22.96;39.08;100756.34;108603;1260;75508;-88
2023/07/21 11:56:49;;;;;;;;;;;;;;;23.17;39.04;100755.64;108622;1261;66813;-85
2023/07/21 11:59:16;;;;;;;;;;;;;;;23.36;39.02;100756.73;108508;1260;125654;-87
2023/07/21 12:01:43;;;;;;;;;;;;;;;23.63;38.98;100753.46;108781;1261;59814;-87
2023/07/21 12:04:11;;;;;;;;;;;;;;;23.82;38.26;100750.07;108593;1260;124613;-89
2023/07/21 12:06:38;;;;;;;;;;;;;;;23.74;37.86;100750.65;108826;1260;74895;-89
2023/07/21 12:09:05;;;;;;;;;;;;;;;23.62;37.92;100747.20;108640;1260;124822;-88
2023/07/21 12:11:36;;;;;;;;;;;;;;;23.47;37.84;100741.91;108829;1261;72429;-90
2023/07/21 12:14:03;;;;;;;;;;;;;;;23.33;37.94;100744.27;108744;1260;60015;-89
2023/07/21 12:16:31;;;;;;;;;;;;;;;23.13;37.73;100743.05;108634;1260;124683;-87
2023/07/21 12:18:58;;;;;;;;;;;;;;;22.98;38.16;100736.25;108709;1260;74272;-88
2023/07/21 12:21:25;;;;;;;;;;;;;;;22.94;38.29;100735.11;108625;1261;124708;-88
2023/07/21 12:23:52;;;;;;;;;;;;;;;23.02;38.11;100730.42;108670;1262;72782;-88
2023/07/21 12:26:19;;;;;;;;;;;;;;;23.22;38.27;100730.63;108723;1260;59853;-89
2023/07/21 12:28:48;;;;;;;;;;;;;;;23.42;38.06;100731.30;108630;1261;124408;-89
2023/07/21 12:31:15;;;;;;;;;;;;;;;23.49;37.75;100726.98;108733;1260;75561;-89